createdAt,value
2022-09-16T00:01:13.938Z,21.02
2022-09-16T00:03:42.418Z,21.09
2022-09-16T00:06:19.657Z,21.50
2022-09-16T00:08:48.267Z,21.16
2022-09-16T00:11:17.307Z,21.26
2022-09-16T00:13:46.461Z,21.68
2022-09-16T00:16:18.475Z,21.77
2022-09-16T00:18:46.886Z,21.72
2022-09-16T00:21:15.151Z,21.95
2022-09-16T00:23:44.773Z,21.70
2022-09-16T00:26:13.096Z,21.90
2022-09-16T00:28:41.416Z,21.84
2022-09-16T00:31:10.102Z,21.41
2022-09-16T00:33:38.556Z,22.15
2022-09-16T00:36:09.078Z,21.87
2022-09-16T00:38:37.179Z,21.99
2022-09-16T00:41:07.720Z,21.99
2022-09-16T00:43:50.008Z,22.03
2022-09-16T00:46:19.963Z,21.52
2022-09-16T00:48:48.368Z,21.30
2022-09-16T00:51:17.882Z,21.72
2022-09-16T00:53:49.596Z,21.56
2022-09-16T00:56:23.030Z,21.75
2022-09-16T00:58:53.527Z,21.91
2022-09-16T01:01:22.204Z,22.14
2022-09-16T01:03:55.071Z,22.02
2022-09-16T01:06:25.622Z,22.27
2022-09-16T01:08:53.792Z,22.33
2022-09-16T01:11:23.505Z,21.93
2022-09-16T01:13:53.017Z,21.92
2022-09-16T01:16:25.095Z,21.78
2022-09-16T01:18:59.928Z,22.29
2022-09-16T01:21:38.835Z,22.61
2022-09-16T01:24:49.114Z,22.67
2022-09-16T01:27:44.615Z,22.31
2022-09-16T01:30:40.840Z,22.31
2022-09-16T01:33:17.781Z,22.24
2022-09-16T01:35:56.217Z,21.79
2022-09-16T01:38:36.544Z,21.98
2022-09-16T01:41:09.107Z,21.83
2022-09-16T01:43:44.660Z,21.83
2022-09-16T01:46:20.909Z,22.00
2022-09-16T01:48:55.667Z,21.98
2022-09-16T01:51:27.903Z,22.65
2022-09-16T01:54:04.034Z,22.71
2022-09-16T01:56:37.950Z,22.61
2022-09-16T01:59:09.431Z,22.41
2022-09-16T02:01:41.087Z,22.41
2022-09-16T02:04:14.480Z,22.54
2022-09-16T02:06:45.778Z,22.57
2022-09-16T02:09:18.617Z,22.17
2022-09-16T02:11:48.794Z,22.05
2022-09-16T02:14:19.801Z,21.95
2022-09-16T02:16:51.174Z,21.88
2022-09-16T02:19:24.325Z,22.27
2022-09-16T02:21:53.673Z,21.93
2022-09-16T02:24:23.584Z,21.66
2022-09-16T02:26:55.462Z,21.67
2022-09-16T02:29:27.210Z,21.01
2022-09-16T02:31:59.854Z,21.25
2022-09-16T02:34:33.407Z,21.70
2022-09-16T02:37:05.713Z,21.49
2022-09-16T02:39:37.774Z,21.18
2022-09-16T02:42:06.771Z,21.39
2022-09-16T02:44:35.945Z,21.36
2022-09-16T02:47:10.793Z,20.76
2022-09-16T02:49:44.422Z,22.13
2022-09-16T02:52:17.909Z,21.52
2022-09-16T02:54:51.502Z,20.68
2022-09-16T02:57:20.473Z,21.34
2022-09-16T02:59:48.849Z,21.16
2022-09-16T03:02:17.215Z,21.17
2022-09-16T03:04:47.185Z,21.17
2022-09-16T03:07:16.886Z,20.93
2022-09-16T03:09:47.141Z,21.09
2022-09-16T03:12:25.184Z,21.16
2022-09-16T03:15:31.644Z,21.27
2022-09-16T03:18:18.815Z,21.13
2022-09-16T03:20:53.940Z,21.06
2022-09-16T03:23:28.788Z,20.95
2022-09-16T03:26:00.409Z,20.65
2022-09-16T03:28:34.717Z,20.76
2022-09-16T03:31:07.865Z,20.54
2022-09-16T03:33:40.857Z,20.79
2022-09-16T03:36:15.397Z,20.52
2022-09-16T03:38:44.473Z,20.82
2022-09-16T03:41:13.907Z,20.76
2022-09-16T03:43:42.236Z,20.63
2022-09-16T03:46:12.271Z,21.02
2022-09-16T03:48:40.734Z,20.74
2022-09-16T03:51:10.449Z,20.95
2022-09-16T03:53:38.848Z,20.51
2022-09-16T03:56:07.728Z,20.73
2022-09-16T03:58:36.163Z,20.52
2022-09-16T04:01:05.020Z,20.68
2022-09-16T04:03:33.727Z,20.49
2022-09-16T04:06:02.113Z,20.39
2022-09-16T04:08:31.813Z,20.60
2022-09-16T04:11:02.204Z,20.25
2022-09-16T04:13:31.762Z,20.43
2022-09-16T04:16:00.133Z,20.28
2022-09-16T04:18:28.758Z,20.45
2022-09-16T04:20:58.768Z,20.38
2022-09-16T04:23:27.142Z,19.41
2022-09-16T04:25:57.357Z,20.08
2022-09-16T04:28:26.110Z,20.49
2022-09-16T04:30:54.704Z,20.18
2022-09-16T04:33:23.273Z,20.75
2022-09-16T04:35:51.594Z,20.05
2022-09-16T04:38:20.032Z,20.11
2022-09-16T04:40:48.388Z,20.40
2022-09-16T04:43:18.157Z,20.81
2022-09-16T04:45:46.558Z,20.76
2022-09-16T04:48:14.965Z,20.54
2022-09-16T04:50:43.423Z,20.33
2022-09-16T04:53:11.811Z,20.60
2022-09-16T04:55:40.166Z,20.54
2022-09-16T04:58:08.570Z,20.85
2022-09-16T05:00:38.342Z,21.08
2022-09-16T05:03:06.925Z,20.76
2022-09-16T05:05:35.306Z,20.96
2022-09-16T05:08:03.864Z,20.96
2022-09-16T05:10:39.133Z,21.25
2022-09-16T05:13:09.039Z,21.33
2022-09-16T05:15:38.872Z,21.25
2022-09-16T05:18:07.300Z,21.00
2022-09-16T05:20:36.478Z,21.44
2022-09-16T05:23:05.278Z,21.32
2022-09-16T05:25:34.780Z,21.48
2022-09-16T05:28:03.563Z,21.02
2022-09-16T05:30:31.914Z,20.05
2022-09-16T05:33:01.669Z,20.78
2022-09-16T05:35:30.062Z,20.86
2022-09-16T05:37:58.515Z,20.93
2022-09-16T05:40:27.769Z,21.08
2022-09-16T05:42:56.623Z,21.07
2022-09-16T05:45:28.771Z,21.07
2022-09-16T05:48:01.306Z,21.16
2022-09-16T05:50:29.650Z,21.14
2022-09-16T05:52:57.987Z,21.02
2022-09-16T05:55:26.877Z,21.47
2022-09-16T05:57:55.155Z,21.07
2022-09-16T06:00:23.511Z,21.48
2022-09-16T06:02:51.901Z,21.03
2022-09-16T06:05:22.023Z,21.12
2022-09-16T06:07:50.339Z,21.28
2022-09-16T06:10:19.116Z,20.43
2022-09-16T06:15:33.165Z,21.24
2022-09-16T06:18:06.110Z,21.61
2022-09-16T06:20:37.776Z,21.83
2022-09-16T06:23:06.048Z,22.09
2022-09-16T06:25:34.423Z,21.15
2022-09-16T06:28:03.346Z,21.58
2022-09-16T06:30:32.214Z,21.95
2022-09-16T06:33:00.562Z,22.46
2022-09-16T06:35:29.015Z,22.52
2022-09-16T06:37:59.520Z,22.54
2022-09-16T06:40:27.718Z,22.13
2022-09-16T06:43:00.015Z,21.30
2022-09-16T06:45:29.391Z,20.97
2022-09-16T06:48:00.963Z,21.26
2022-09-16T06:50:29.480Z,20.59
2022-09-16T06:52:59.346Z,21.61
2022-09-16T06:55:27.653Z,21.77
2022-09-16T06:57:57.954Z,21.42
2022-09-16T07:00:26.574Z,21.47
2022-09-16T07:02:55.104Z,21.03
2022-09-16T07:05:23.749Z,21.42
2022-09-16T07:07:53.103Z,21.66
2022-09-16T07:10:24.205Z,22.30
2022-09-16T07:12:52.915Z,22.52
2022-09-16T07:15:21.413Z,22.49
2022-09-16T07:17:55.055Z,22.10
2022-09-16T07:20:23.527Z,21.44
2022-09-16T07:22:53.995Z,21.83
2022-09-16T07:25:23.479Z,22.43
2022-09-16T07:27:51.745Z,22.21
2022-09-16T07:30:20.056Z,22.06
2022-09-16T07:32:48.504Z,21.74
2022-09-16T07:35:16.887Z,22.59
2022-09-16T07:37:45.126Z,22.18
2022-09-16T07:40:14.038Z,22.69
2022-09-16T07:42:43.703Z,22.19
2022-09-16T07:45:12.347Z,22.35
2022-09-16T07:47:40.694Z,23.38
2022-09-16T07:50:09.969Z,24.01
2022-09-16T07:52:38.337Z,23.34
2022-09-16T07:55:07.471Z,23.91
2022-09-16T07:57:35.963Z,24.31
2022-09-16T08:00:07.035Z,24.27
2022-09-16T08:02:35.390Z,24.63
2022-09-16T08:05:03.685Z,24.61
2022-09-16T08:07:31.984Z,24.74
2022-09-16T08:10:00.375Z,25.04
2022-09-16T08:12:32.332Z,24.17
2022-09-16T08:15:00.716Z,24.17
2022-09-16T08:17:33.365Z,24.35
2022-09-16T08:20:06.094Z,23.63
2022-09-16T08:22:35.230Z,23.11
2022-09-16T08:25:03.520Z,23.97
2022-09-16T08:27:31.927Z,24.37
2022-09-16T08:30:00.204Z,23.99
2022-09-16T08:32:30.964Z,23.98
2022-09-16T08:34:59.405Z,23.44
2022-09-16T08:37:27.746Z,23.53
2022-09-16T08:39:56.007Z,23.63
2022-09-16T08:42:31.948Z,24.02
2022-09-16T08:45:09.969Z,24.24
2022-09-16T08:47:49.650Z,22.90
2022-09-16T08:50:23.412Z,23.30
2022-09-16T08:52:53.059Z,23.66
2022-09-16T08:55:31.635Z,23.76
2022-09-16T08:58:03.118Z,23.30
2022-09-16T09:00:32.747Z,22.80
2022-09-16T09:03:08.653Z,23.08
2022-09-16T09:05:43.651Z,23.66
2022-09-16T09:08:22.508Z,22.61
2022-09-16T09:10:53.631Z,23.10
2022-09-16T09:13:36.978Z,23.21
2022-09-16T09:16:10.191Z,23.57
2022-09-16T09:18:46.428Z,22.61
2022-09-16T09:21:21.901Z,22.45
2022-09-16T09:24:22.422Z,23.53
2022-09-16T09:26:52.439Z,23.14
2022-09-16T09:29:43.029Z,23.11
2022-09-16T09:32:16.124Z,22.62
2022-09-16T09:35:05.351Z,22.42
2022-09-16T09:37:48.679Z,22.87
2022-09-16T09:40:20.701Z,22.82
2022-09-16T09:42:52.387Z,22.80
2022-09-16T09:45:25.667Z,21.94
2022-09-16T09:47:58.382Z,21.98
2022-09-16T09:50:30.990Z,22.11
2022-09-16T09:53:07.042Z,22.35
2022-09-16T09:55:36.743Z,21.90
2022-09-16T09:58:17.279Z,21.68
2022-09-16T10:00:45.656Z,22.39
2022-09-16T10:03:16.502Z,22.34
2022-09-16T10:05:47.383Z,22.23
2022-09-16T10:08:22.527Z,21.59
2022-09-16T10:10:52.661Z,21.48
2022-09-16T10:13:22.046Z,21.30
2022-09-16T10:15:54.802Z,21.71
2022-09-16T10:18:29.668Z,21.63
2022-09-16T10:21:06.042Z,20.93
2022-09-16T10:23:35.500Z,20.40
2022-09-16T10:26:15.458Z,20.30
2022-09-16T10:28:55.342Z,20.80
2022-09-16T10:31:24.423Z,21.14
2022-09-16T10:33:53.039Z,21.16
2022-09-16T10:36:26.304Z,21.61
2022-09-16T10:38:59.600Z,21.81
2022-09-16T10:41:33.969Z,22.02
2022-09-16T10:44:04.413Z,21.81
2022-09-16T10:46:33.162Z,21.73
2022-09-16T10:49:03.377Z,21.29
2022-09-16T10:54:26.021Z,22.13
2022-09-16T10:56:54.420Z,21.48
2022-09-16T10:59:22.720Z,21.29
2022-09-16T11:01:57.817Z,21.41
2022-09-16T11:04:55.738Z,20.85
2022-09-16T11:07:36.252Z,20.25
2022-09-16T11:10:09.503Z,19.42
2022-09-16T11:12:51.237Z,19.44
2022-09-16T11:15:28.756Z,19.23
2022-09-16T11:18:06.562Z,19.26
2022-09-16T11:20:51.409Z,19.54
2022-09-16T11:23:31.533Z,19.30
2022-09-16T11:26:04.290Z,19.06
2022-09-16T11:28:46.417Z,19.16
2022-09-16T11:31:22.635Z,19.31
2022-09-16T11:33:55.214Z,19.21
2022-09-16T11:36:39.386Z,18.97
2022-09-16T11:39:23.497Z,18.92
2022-09-16T11:41:58.910Z,18.85
2022-09-16T11:44:43.313Z,19.10
2022-09-16T11:47:21.820Z,18.86
2022-09-16T11:50:16.089Z,19.03
2022-09-16T11:53:05.379Z,19.23
2022-09-16T11:55:43.446Z,19.18
2022-09-16T11:58:21.913Z,19.31
2022-09-16T12:00:51.422Z,20.00
2022-09-16T12:03:26.960Z,20.13
2022-09-16T12:06:03.643Z,19.94
2022-09-16T12:08:36.108Z,19.87
2022-09-16T12:11:13.210Z,20.41
2022-09-16T12:13:44.843Z,19.81
2022-09-16T12:16:21.459Z,20.17
2022-09-16T12:18:52.853Z,20.14
2022-09-16T12:21:25.480Z,20.03
2022-09-16T12:23:57.659Z,20.17
2022-09-16T12:26:30.592Z,19.79
2022-09-16T12:29:05.427Z,19.97
2022-09-16T12:31:36.283Z,20.38
2022-09-16T12:34:06.840Z,19.90
2022-09-16T12:36:35.367Z,20.56
2022-09-16T12:39:03.717Z,19.86
2022-09-16T12:41:57.077Z,19.51
2022-09-16T12:44:55.510Z,19.60
2022-09-16T12:47:56.495Z,20.11
2022-09-16T12:50:50.955Z,19.80
2022-09-16T12:54:06.926Z,19.11
2022-09-16T12:56:46.912Z,19.48
2022-09-16T12:59:41.956Z,19.50
2022-09-16T13:02:14.133Z,19.38
2022-09-16T13:04:45.649Z,19.49
2022-09-16T13:07:22.679Z,18.59
2022-09-16T13:09:51.970Z,18.77
2022-09-16T13:12:39.122Z,19.67
2022-09-16T13:15:21.400Z,19.34
2022-09-16T13:17:52.865Z,19.82
2022-09-16T13:20:25.253Z,19.94
2022-09-16T13:23:09.891Z,20.15
2022-09-16T13:25:48.172Z,21.00
2022-09-16T13:28:28.309Z,20.96
2022-09-16T13:30:56.708Z,20.77
2022-09-16T13:33:29.841Z,20.97
2022-09-16T13:36:30.775Z,21.18
2022-09-16T13:39:00.808Z,20.60
2022-09-16T13:41:34.563Z,20.35
2022-09-16T13:44:05.759Z,20.87
2022-09-16T13:46:36.807Z,20.88
2022-09-16T13:49:14.007Z,20.73
2022-09-16T13:51:45.392Z,21.00
2022-09-16T13:54:22.992Z,20.54
2022-09-16T13:57:22.996Z,20.51
2022-09-16T14:00:15.237Z,21.20
2022-09-16T14:02:55.374Z,20.09
2022-09-16T14:05:47.216Z,20.83
2022-09-16T14:08:20.242Z,20.08
2022-09-16T14:10:56.146Z,20.38
2022-09-16T14:13:25.816Z,19.49
2022-09-16T14:15:58.231Z,19.78
2022-09-16T14:18:28.108Z,19.68
2022-09-16T14:21:01.595Z,19.30
2022-09-16T14:23:31.337Z,19.79
2022-09-16T14:25:59.789Z,19.74
2022-09-16T14:28:29.150Z,19.87
2022-09-16T14:31:00.199Z,20.58
2022-09-16T14:33:31.281Z,20.17
2022-09-16T14:36:00.499Z,20.25
2022-09-16T14:38:45.479Z,20.95
2022-09-16T14:41:21.107Z,21.09
2022-09-16T14:43:49.521Z,20.47
2022-09-16T14:46:19.223Z,20.35
2022-09-16T14:48:47.660Z,20.46
2022-09-16T14:51:21.971Z,20.08
2022-09-16T14:54:13.616Z,20.13
2022-09-16T14:56:42.127Z,20.28
2022-09-16T14:59:12.771Z,19.88
2022-09-16T15:01:42.675Z,19.97
2022-09-16T15:04:13.452Z,20.30
2022-09-16T15:06:45.964Z,19.79
2022-09-16T15:09:18.239Z,19.77
2022-09-16T15:11:49.248Z,20.76
2022-09-16T15:14:17.982Z,20.00
2022-09-16T15:16:49.606Z,19.92
2022-09-16T15:19:21.419Z,19.88
2022-09-16T15:21:50.069Z,19.54
2022-09-16T15:24:20.542Z,20.10
2022-09-16T15:26:49.393Z,20.14
2022-09-16T15:29:31.886Z,19.76
2022-09-16T15:32:19.603Z,19.52
2022-09-16T15:34:48.955Z,19.34
2022-09-16T15:37:33.084Z,19.91
2022-09-16T15:40:12.650Z,19.07
2022-09-16T15:42:42.366Z,20.41
2022-09-16T15:45:19.796Z,19.93
2022-09-16T15:47:57.362Z,18.79
2022-09-16T15:50:27.036Z,19.26
2022-09-16T15:52:58.233Z,20.03
2022-09-16T15:55:31.415Z,19.65
2022-09-16T15:58:04.996Z,19.84
2022-09-16T16:01:05.488Z,19.53
2022-09-16T16:03:39.193Z,19.34
2022-09-16T16:06:07.889Z,19.90
2022-09-16T16:08:46.031Z,19.36
2022-09-16T16:11:15.706Z,19.60
2022-09-16T16:13:44.393Z,19.62
2022-09-16T16:16:14.376Z,20.28
2022-09-16T16:18:45.933Z,19.47
2022-09-16T16:21:16.596Z,19.55
2022-09-16T16:23:45.293Z,19.40
2022-09-16T16:26:13.719Z,19.78
2022-09-16T16:28:42.026Z,19.97
2022-09-16T16:31:15.907Z,20.56
2022-09-16T16:33:47.540Z,19.79
2022-09-16T16:36:17.622Z,20.38
2022-09-16T16:38:46.462Z,20.23
2022-09-16T16:41:15.659Z,20.05
2022-09-16T16:43:44.035Z,19.65
2022-09-16T16:46:12.417Z,19.57
2022-09-16T16:48:41.121Z,19.21
2022-09-16T16:51:13.855Z,19.52
2022-09-16T16:53:42.191Z,19.39
2022-09-16T16:56:15.126Z,19.26
2022-09-16T16:58:44.618Z,19.62
2022-09-16T17:01:14.724Z,19.41
2022-09-16T17:03:44.850Z,18.78
2022-09-16T17:06:14.542Z,19.16
2022-09-16T17:08:42.822Z,19.21
2022-09-16T17:11:14.000Z,19.69
2022-09-16T17:13:43.693Z,19.18
2022-09-16T17:16:13.451Z,19.05
2022-09-16T17:18:42.734Z,19.16
2022-09-16T17:21:13.166Z,19.33
2022-09-16T17:23:42.750Z,18.86
2022-09-16T17:26:11.144Z,19.30
2022-09-16T17:28:40.513Z,19.28
2022-09-16T17:31:11.872Z,19.23
2022-09-16T17:33:40.272Z,19.96
2022-09-16T17:36:09.540Z,20.24
2022-09-16T17:38:37.792Z,19.55
2022-09-16T17:41:09.370Z,19.21
2022-09-16T17:43:38.646Z,19.61
2022-09-16T17:46:09.130Z,19.13
2022-09-16T17:48:38.042Z,19.51
2022-09-16T17:51:06.778Z,19.38
2022-09-16T17:53:35.244Z,19.35
2022-09-16T17:56:05.568Z,18.98
2022-09-16T17:58:36.096Z,19.68
2022-09-16T18:01:06.674Z,19.41
2022-09-16T18:03:34.809Z,19.61
2022-09-16T18:06:08.098Z,19.62
2022-09-16T18:08:36.753Z,18.87
2022-09-16T18:11:05.711Z,19.19
2022-09-16T18:13:35.958Z,19.04
2022-09-16T18:16:05.921Z,18.85
2022-09-16T18:18:36.591Z,18.59
2022-09-16T18:21:06.412Z,18.25
2022-09-16T18:23:35.168Z,19.04
2022-09-16T18:26:07.785Z,18.49
2022-09-16T18:28:58.067Z,18.56
2022-09-16T18:31:26.557Z,18.54
2022-09-16T18:33:55.989Z,18.10
2022-09-16T18:36:25.642Z,18.83
2022-09-16T18:38:54.806Z,18.46
2022-09-16T18:41:24.313Z,18.31
2022-09-16T18:43:56.217Z,18.62
2022-09-16T18:46:26.836Z,17.84
2022-09-16T18:48:55.978Z,18.41
2022-09-16T18:51:26.026Z,18.62
2022-09-16T18:53:55.671Z,18.59
2022-09-16T18:56:26.056Z,18.52
2022-09-16T18:59:20.054Z,18.71
2022-09-16T19:01:48.690Z,19.20
2022-09-16T19:04:17.522Z,18.41
2022-09-16T19:06:46.965Z,18.86
2022-09-16T19:09:16.216Z,18.84
2022-09-16T19:11:44.697Z,18.48
2022-09-16T19:14:15.399Z,19.18
2022-09-16T19:16:45.258Z,19.08
2022-09-16T19:19:15.602Z,18.57
2022-09-16T19:21:44.586Z,19.20
2022-09-16T19:24:14.947Z,19.28
2022-09-16T19:26:44.626Z,19.10
2022-09-16T19:29:15.094Z,19.07
2022-09-16T19:31:44.734Z,18.84
2022-09-16T19:34:13.873Z,18.90
2022-09-16T19:36:42.690Z,19.28
2022-09-16T19:39:12.300Z,19.06
2022-09-16T19:41:41.562Z,18.46
2022-09-16T19:44:12.443Z,18.24
2022-09-16T19:46:43.446Z,18.42
2022-09-16T19:49:15.979Z,18.86
2022-09-16T19:51:44.554Z,19.05
2022-09-16T19:54:13.603Z,18.83
2022-09-16T19:56:44.960Z,19.14
2022-09-16T19:59:16.761Z,18.93
2022-09-16T20:01:46.666Z,18.41
2022-09-16T20:04:15.709Z,18.96
2022-09-16T20:06:44.430Z,19.09
2022-09-16T20:09:14.030Z,18.53
2022-09-16T20:11:44.018Z,18.57
2022-09-16T20:14:14.787Z,18.07
2022-09-16T20:16:44.946Z,18.78
2022-09-16T20:19:18.111Z,18.89
2022-09-16T20:21:48.767Z,18.24
2022-09-16T20:24:19.676Z,18.89
2022-09-16T20:26:48.611Z,18.10
2022-09-16T20:29:18.608Z,18.35
2022-09-16T20:31:47.779Z,18.91
2022-09-16T20:34:18.184Z,19.03
2022-09-16T20:36:47.255Z,18.84
2022-09-16T20:39:17.211Z,18.37
2022-09-16T20:41:49.841Z,18.39
2022-09-16T20:44:18.546Z,18.33
2022-09-16T20:46:48.263Z,18.62
2022-09-16T20:49:19.675Z,18.80
2022-09-16T20:51:47.990Z,18.98
2022-09-16T20:54:17.011Z,18.45
2022-09-16T20:56:46.780Z,18.94
2022-09-16T20:59:16.374Z,18.71
2022-09-16T21:01:45.217Z,19.61
2022-09-16T21:04:15.361Z,19.23
2022-09-16T21:06:45.573Z,18.53
2022-09-16T21:09:16.107Z,18.20
2022-09-16T21:11:46.129Z,18.38
2022-09-16T21:14:16.254Z,18.34
2022-09-16T21:16:45.877Z,18.52
2022-09-16T21:19:14.798Z,17.92
2022-09-16T21:21:46.350Z,18.02
2022-09-16T21:24:14.706Z,17.18
2022-09-16T21:26:43.997Z,17.19
2022-09-16T21:29:13.801Z,17.31
2022-09-16T21:31:43.203Z,17.49
2022-09-16T21:34:13.507Z,17.45
2022-09-16T21:36:41.767Z,17.50
2022-09-16T21:39:12.232Z,17.42
2022-09-16T21:41:40.551Z,17.53
2022-09-16T21:44:08.875Z,18.14
2022-09-16T21:46:41.491Z,18.13
2022-09-16T21:49:19.175Z,18.31
2022-09-16T21:51:47.522Z,18.39
2022-09-16T21:54:20.104Z,17.95
2022-09-16T21:56:49.299Z,18.43
2022-09-16T21:59:19.861Z,18.11
2022-09-16T22:01:49.492Z,18.25
2022-09-16T22:04:19.484Z,17.81
2022-09-16T22:06:49.311Z,18.44
2022-09-16T22:09:19.074Z,18.01
2022-09-16T22:11:47.862Z,17.69
2022-09-16T22:14:17.004Z,17.63
2022-09-16T22:16:45.319Z,17.65
2022-09-16T22:19:16.008Z,16.84
2022-09-16T22:21:45.757Z,17.10
2022-09-16T22:24:16.230Z,17.57
2022-09-16T22:26:45.971Z,17.27
2022-09-16T22:29:14.457Z,17.67
2022-09-16T22:31:43.162Z,17.68
2022-09-16T22:34:11.580Z,17.66
2022-09-16T22:36:40.606Z,17.27
2022-09-16T22:39:13.343Z,17.23
2022-09-16T22:41:41.678Z,17.03
2022-09-16T22:44:11.451Z,17.53
2022-09-16T22:46:42.259Z,17.27
2022-09-16T22:49:11.437Z,17.30
2022-09-16T22:51:40.062Z,17.56
2022-09-16T22:54:08.544Z,17.39
2022-09-16T22:56:37.258Z,17.19
2022-09-16T22:59:07.069Z,17.23
2022-09-16T23:01:39.733Z,16.69
2022-09-16T23:04:09.978Z,16.76
2022-09-16T23:06:39.660Z,17.00
2022-09-16T23:09:09.167Z,17.55
2022-09-16T23:11:37.641Z,17.85
2022-09-16T23:14:06.586Z,17.17
2022-09-16T23:16:38.205Z,17.67
2022-09-16T23:19:07.973Z,17.29
2022-09-16T23:21:36.348Z,16.92
2022-09-16T23:24:05.788Z,16.28
2022-09-16T23:26:35.571Z,16.84
2022-09-16T23:29:06.055Z,15.97
2022-09-16T23:31:40.343Z,16.03
2022-09-16T23:34:09.367Z,15.80
2022-09-16T23:36:38.169Z,16.38
2022-09-16T23:39:07.558Z,16.55
2022-09-16T23:41:36.268Z,16.19
2022-09-16T23:44:04.764Z,16.08
2022-09-16T23:46:34.354Z,15.84
2022-09-16T23:49:04.678Z,16.16
2022-09-16T23:51:33.173Z,16.06
2022-09-16T23:54:01.447Z,16.42
2022-09-16T23:56:29.823Z,15.80
2022-09-16T23:59:01.470Z,16.36
